Climatologie pour Saint-Brevin les Pins
Jour • Résumé pour février 4, 2017 Système :  Métrique    Anglais   Mixte
« - 1 jour
+ 1 jour »
Jour Semaine Mois Année Personnalisé
  Maximum : Minimum : Moyenne :
Température sous abri : 11.1 °C 5.1 °C 8.2 °C
Point de rosée : 8.1 °C 4.5 °C 6.6 °C
Humidité : 97 % 71 % 90 %
Vitesse du vent : 37.0 km/h 0.0 km/h 9.6 km/h
Rafale : 54.7 km/h - -
Direction :- - SW
Pression : 1003.6 hPa 984.6 hPa -
Précipitations : 14.5 mm    
Historical Graphs
 
 
Tableau de données pour février 4, 2017
Heure Tempé Pt rosée Pression Vent Vitesse Rafale Humidité Taux pluie (/hr) Soleil
00:00 8.9 °C 7.4 °C 995.8 hPa South 14.5 km/h 30.6 km/h 90 % 0.0 mm 0 W/m2
00:10 8.6 °C 7.0 °C 995.5 hPa South 17.7 km/h 30.6 km/h 90 % 0.0 mm 0 W/m2
00:15 8.4 °C 6.8 °C 995.1 hPa SSE 17.7 km/h 20.9 km/h 90 % 0.0 mm 0 W/m2
00:20 8.3 °C 6.7 °C 995.1 hPa SSE 4.8 km/h 20.9 km/h 90 % 0.0 mm 0 W/m2
00:25 8.2 °C 6.7 °C 994.8 hPa South 6.4 km/h 17.7 km/h 90 % 0.0 mm 0 W/m2
00:30 8.1 °C 6.6 °C 994.8 hPa SSE 11.3 km/h 20.9 km/h 90 % 0.3 mm 0 W/m2
00:35 8.1 °C 6.5 °C 994.8 hPa SSE 14.5 km/h 20.9 km/h 90 % 0.5 mm 0 W/m2
00:40 7.9 °C 6.4 °C 994.8 hPa SSE 12.9 km/h 17.7 km/h 90 % 0.5 mm 0 W/m2
00:45 7.9 °C 6.5 °C 994.5 hPa South 6.4 km/h 16.1 km/h 91 % 0.5 mm 0 W/m2
00:50 7.8 °C 6.5 °C 994.1 hPa SE 3.2 km/h 17.7 km/h 91 % 0.8 mm 0 W/m2
00:55 7.8 °C 6.6 °C 994.1 hPa ESE 4.8 km/h 17.7 km/h 92 % 0.8 mm 0 W/m2
01:00 7.8 °C 6.6 °C 993.8 hPa SSE 17.7 km/h 19.3 km/h 92 % 1.3 mm 0 W/m2
01:05 7.9 °C 6.8 °C 993.8 hPa South 8.0 km/h 19.3 km/h 93 % 1.8 mm 0 W/m2
01:10 7.9 °C 6.9 °C 993.5 hPa SSE 4.8 km/h 19.3 km/h 93 % 2.0 mm 0 W/m2
01:15 8.0 °C 7.1 °C 993.1 hPa SE 6.4 km/h 22.5 km/h 94 % 2.3 mm 0 W/m2
01:20 8.0 °C 7.1 °C 993.1 hPa SE 8.0 km/h 22.5 km/h 94 % 2.3 mm 0 W/m2
01:25 8.1 °C 7.1 °C 992.8 hPa SE 14.5 km/h 19.3 km/h 94 % 2.5 mm 0 W/m2
01:30 8.1 °C 7.2 °C 992.4 hPa SE 12.9 km/h 29.0 km/h 94 % 2.8 mm 0 W/m2
01:35 8.1 °C 7.4 °C 992.1 hPa SE 12.9 km/h 29.0 km/h 95 % 3.0 mm 0 W/m2
01:40 8.1 °C 7.4 °C 991.8 hPa SE 3.2 km/h 25.7 km/h 95 % 3.3 mm 0 W/m2
01:45 8.1 °C 7.4 °C 991.8 hPa South 8.0 km/h 19.3 km/h 95 % 3.3 mm 0 W/m2
01:50 8.1 °C 7.4 °C 991.4 hPa ESE 6.4 km/h 20.9 km/h 95 % 3.6 mm 0 W/m2
01:55 8.1 °C 7.4 °C 991.1 hPa SSE 14.5 km/h 20.9 km/h 95 % 3.6 mm 0 W/m2
02:00 8.1 °C 7.3 °C 990.4 hPa SE 11.3 km/h 24.1 km/h 95 % 3.3 mm 0 W/m2
02:05 8.1 °C 7.3 °C 990.4 hPa SSE 16.1 km/h 24.1 km/h 95 % 3.0 mm 0 W/m2
02:10 8.0 °C 7.2 °C 989.7 hPa SE 11.3 km/h 24.1 km/h 95 % 3.3 mm 0 W/m2
02:15 7.9 °C 7.2 °C 989.4 hPa ESE 12.9 km/h 29.0 km/h 95 % 3.3 mm 0 W/m2
02:25 7.8 °C 7.1 °C 989.1 hPa SE 11.3 km/h 29.0 km/h 95 % 3.0 mm 0 W/m2
02:30 7.8 °C 7.0 °C 988.7 hPa East 20.9 km/h 35.4 km/h 95 % 2.8 mm 0 W/m2
02:35 7.8 °C 7.0 °C 988.4 hPa SSE 12.9 km/h 35.4 km/h 95 % 2.5 mm 0 W/m2
02:40 7.7 °C 7.1 °C 988.0 hPa SSE 17.7 km/h 37.0 km/h 96 % 2.3 mm 0 W/m2
02:45 7.7 °C 7.1 °C 987.7 hPa SSE 22.5 km/h 37.0 km/h 96 % 2.0 mm 0 W/m2
02:50 7.8 °C 7.2 °C 987.7 hPa South 12.9 km/h 35.4 km/h 96 % 1.5 mm 0 W/m2
02:55 7.8 °C 7.2 °C 987.4 hPa SSE 24.1 km/h 37.0 km/h 96 % 1.5 mm 0 W/m2
03:00 7.8 °C 7.2 °C 987.0 hPa SSE 12.9 km/h 37.0 km/h 96 % 1.3 mm 0 W/m2
03:05 7.9 °C 7.3 °C 986.7 hPa SSE 17.7 km/h 35.4 km/h 96 % 1.3 mm 0 W/m2
03:10 8.0 °C 7.4 °C 986.7 hPa South 17.7 km/h 38.6 km/h 96 % 0.8 mm 0 W/m2
03:15 8.1 °C 7.5 °C 986.7 hPa South 19.3 km/h 38.6 km/h 96 % 0.5 mm 0 W/m2
03:20 8.2 °C 7.6 °C 986.3 hPa South 17.7 km/h 35.4 km/h 96 % 0.5 mm 0 W/m2
03:25 8.2 °C 7.6 °C 986.3 hPa South 17.7 km/h 35.4 km/h 96 % 1.0 mm 0 W/m2
03:30 8.1 °C 7.5 °C 986.3 hPa SSE 12.9 km/h 35.4 km/h 96 % 1.5 mm 0 W/m2
03:35 8.1 °C 7.3 °C 986.0 hPa South 14.5 km/h 35.4 km/h 95 % 2.0 mm 0 W/m2
03:40 7.9 °C 7.2 °C 985.3 hPa SSE 3.2 km/h 27.4 km/h 95 % 2.3 mm 0 W/m2
03:45 7.9 °C 7.1 °C 985.3 hPa SW 11.3 km/h 24.1 km/h 95 % 2.8 mm 0 W/m2
03:50 7.8 °C 7.0 °C 986.3 hPa SSW 16.1 km/h 30.6 km/h 95 % 3.6 mm 0 W/m2
03:55 7.3 °C 6.4 °C 986.0 hPa WNW 12.9 km/h 35.4 km/h 94 % 4.8 mm 0 W/m2
04:00 6.9 °C 6.0 °C 985.3 hPa West 4.8 km/h 35.4 km/h 94 % 5.1 mm 0 W/m2
04:05 6.8 °C 5.9 °C 985.3 hPa West 8.0 km/h 16.1 km/h 94 % 5.3 mm 0 W/m2
04:10 6.7 °C 6.0 °C 985.0 hPa West 4.8 km/h 16.1 km/h 95 % 5.6 mm 0 W/m2
04:20 6.7 °C 6.0 °C 984.6 hPa ESE 3.2 km/h 4.8 km/h 95 % 5.1 mm 0 W/m2
04:25 6.6 °C 5.9 °C 984.6 hPa SE 3.2 km/h 8.0 km/h 95 % 4.8 mm 0 W/m2
04:30 6.4 °C 5.7 °C 985.0 hPa South 8.0 km/h 11.3 km/h 95 % 4.3 mm 0 W/m2
04:35 6.3 °C 5.6 °C 984.6 hPa Calm   11.3 km/h 95 % 3.6 mm 0 W/m2
04:40 6.3 °C 5.5 °C 984.6 hPa Calm   8.0 km/h 95 % 3.3 mm 0 W/m2
04:45 6.3 °C 5.5 °C 984.6 hPa Calm   1.6 km/h 95 % 3.0 mm 0 W/m2
04:50 6.2 °C 5.5 °C 984.6 hPa South 1.6 km/h 3.2 km/h 95 % 2.3 mm 0 W/m2
04:55 6.2 °C 5.4 °C 984.6 hPa Calm   3.2 km/h 95 % 1.3 mm 0 W/m2
05:00 6.2 °C 5.4 °C 984.6 hPa Calm   1.6 km/h 95 % 0.8 mm 0 W/m2
05:05 6.1 °C 5.4 °C 984.6 hPa Calm     95 % 0.5 mm 0 W/m2
05:10 6.0 °C 5.3 °C 984.6 hPa Calm     95 % 0.5 mm 0 W/m2
05:15 5.8 °C 5.1 °C 985.0 hPa Calm     95 % 0.5 mm 0 W/m2
05:20 5.7 °C 4.8 °C 985.0 hPa Calm     94 % 0.5 mm 0 W/m2
05:25 5.6 °C 4.7 °C 985.3 hPa Calm   1.6 km/h 94 % 0.5 mm 0 W/m2
05:30 5.4 °C 4.6 °C 985.3 hPa Calm   1.6 km/h 94 % 0.5 mm 0 W/m2
05:35 5.4 °C 4.5 °C 985.7 hPa Calm   3.2 km/h 94 % 0.5 mm 0 W/m2
05:40 5.3 °C 4.6 °C 985.7 hPa Calm   3.2 km/h 95 % 0.5 mm 0 W/m2
05:45 5.3 °C 4.6 °C 985.7 hPa Calm   3.2 km/h 95 % 0.3 mm 0 W/m2
05:50 5.4 °C 4.7 °C 985.7 hPa Calm   3.2 km/h 95 % 0.3 mm 0 W/m2
05:55 5.4 °C 4.7 °C 986.0 hPa South 1.6 km/h 3.2 km/h 95 % 0.0 mm 0 W/m2
06:00 5.4 °C 4.7 °C 986.3 hPa West 3.2 km/h 4.8 km/h 95 % 0.3 mm 0 W/m2
06:05 5.5 °C 4.8 °C 986.7 hPa Calm   4.8 km/h 95 % 0.5 mm 0 W/m2
06:10 5.6 °C 4.8 °C 986.7 hPa Calm   4.8 km/h 95 % 0.5 mm 0 W/m2
06:15 5.6 °C 4.9 °C 987.4 hPa NW 4.8 km/h 6.4 km/h 95 % 0.5 mm 0 W/m2
06:20 5.7 °C 5.1 °C 987.4 hPa NW 3.2 km/h 8.0 km/h 96 % 0.5 mm 0 W/m2
06:25 5.8 °C 5.2 °C 987.7 hPa NW 8.0 km/h 12.9 km/h 96 % 0.5 mm 0 W/m2
06:30 5.9 °C 5.4 °C 988.0 hPa NNW 6.4 km/h 12.9 km/h 96 % 0.5 mm 0 W/m2
06:35 6.1 °C 5.5 °C 988.4 hPa NW 9.7 km/h 12.9 km/h 96 % 0.5 mm 0 W/m2
06:40 6.4 °C 5.9 °C 988.7 hPa NW 8.0 km/h 17.7 km/h 97 % 0.5 mm 0 W/m2
06:45 6.6 °C 6.0 °C 989.1 hPa WNW 19.3 km/h 25.7 km/h 96 % 0.5 mm 0 W/m2
06:50 6.8 °C 6.4 °C 989.7 hPa NNW 17.7 km/h 40.2 km/h 97 % 0.5 mm 0 W/m2
06:55 6.9 °C 6.4 °C 990.1 hPa WNW 11.3 km/h 40.2 km/h 96 % 0.3 mm 0 W/m2
07:00 6.9 °C 6.3 °C 990.4 hPa NNW 22.5 km/h 40.2 km/h 96 % 0.5 mm 0 W/m2
07:05 6.8 °C 6.2 °C 991.1 hPa NW 32.2 km/h 46.7 km/h 96 % 0.3 mm 0 W/m2
07:10 6.6 °C 6.0 °C 991.8 hPa NW 37.0 km/h 46.7 km/h 96 % 0.3 mm 0 W/m2
07:15 6.3 °C 5.7 °C 992.1 hPa NW 20.9 km/h 46.7 km/h 96 % 0.3 mm 0 W/m2
07:20 6.1 °C 5.5 °C 992.8 hPa NNW 20.9 km/h 48.3 km/h 96 % 0.3 mm 0 W/m2
07:25 5.8 °C 5.2 °C 993.1 hPa North 24.1 km/h 54.7 km/h 96 % 0.3 mm 0 W/m2
07:30 5.7 °C 5.1 °C 993.5 hPa WNW 19.3 km/h 54.7 km/h 96 % 0.3 mm 0 W/m2
07:35 5.6 °C 5.0 °C 994.1 hPa NW 27.4 km/h 46.7 km/h 96 % 0.5 mm 0 W/m2
07:40 5.5 °C 4.9 °C 994.5 hPa NNW 11.3 km/h 46.7 km/h 96 % 0.5 mm 0 W/m2
07:45 5.4 °C 4.9 °C 994.8 hPa NW 6.4 km/h 46.7 km/h 96 % 0.5 mm 0 W/m2
07:50 5.3 °C 4.7 °C 994.8 hPa NW 30.6 km/h 46.7 km/h 96 % 0.5 mm 0 W/m2
07:55 5.3 °C 4.7 °C 995.1 hPa NNW 20.9 km/h 37.0 km/h 96 % 0.5 mm 0 W/m2
08:00 5.3 °C 4.7 °C 995.5 hPa NW 25.7 km/h 37.0 km/h 96 % 0.3 mm 0 W/m2
08:05 5.3 °C 4.7 °C 995.5 hPa WNW 8.0 km/h 37.0 km/h 96 % 0.3 mm 0 W/m2
08:10 5.2 °C 4.6 °C 995.5 hPa NNW 6.4 km/h 29.0 km/h 96 % 0.3 mm 0 W/m2
08:15 5.2 °C 4.6 °C 995.1 hPa WNW 17.7 km/h 32.2 km/h 96 % 0.3 mm 0 W/m2
08:20 5.2 °C 4.6 °C 995.5 hPa NNW 8.0 km/h 32.2 km/h 96 % 0.3 mm 0 W/m2
08:25 5.2 °C 4.6 °C 995.5 hPa North 12.9 km/h 30.6 km/h 96 % 0.3 mm 0 W/m2
08:30 5.1 °C 4.5 °C 997.2 hPa WNW 12.9 km/h 30.6 km/h 96 % 0.3 mm 0 W/m2
08:35 5.2 °C 4.6 °C 997.5 hPa WNW 25.7 km/h 41.8 km/h 96 % 0.0 mm 0 W/m2
08:40 5.4 °C 4.8 °C 998.2 hPa WSW 11.3 km/h 41.8 km/h 96 % 0.0 mm 0 W/m2
08:45 5.6 °C 5.0 °C 998.2 hPa NW 20.9 km/h 40.2 km/h 96 % 0.0 mm 5 W/m2
08:50 5.6 °C 4.9 °C 998.2 hPa WNW 14.5 km/h 37.0 km/h 95 % 0.0 mm 11 W/m2
08:55 5.6 °C 4.9 °C 998.5 hPa WNW 24.1 km/h 29.0 km/h 95 % 0.0 mm 14 W/m2
09:00 5.6 °C 4.9 °C 998.9 hPa NNW 22.5 km/h 30.6 km/h 95 % 0.0 mm 18 W/m2
09:05 5.7 °C 4.9 °C 999.2 hPa NW 12.9 km/h 30.6 km/h 95 % 0.0 mm 21 W/m2
09:10 5.7 °C 4.9 °C 999.2 hPa NW 19.3 km/h 27.4 km/h 95 % 0.0 mm 23 W/m2
09:15 5.7 °C 5.0 °C 999.5 hPa NW 17.7 km/h 24.1 km/h 95 % 0.0 mm 25 W/m2
09:20 5.8 °C 5.1 °C 999.9 hPa NW 14.5 km/h 22.5 km/h 95 % 0.0 mm 25 W/m2
09:25 5.9 °C 5.1 °C 999.9 hPa WNW 24.1 km/h 25.7 km/h 95 % 0.0 mm 25 W/m2
09:30 6.1 °C 5.3 °C 1000.2 hPa WNW 6.4 km/h 25.7 km/h 95 % 0.0 mm 26 W/m2
09:35 6.2 °C 5.4 °C 1000.2 hPa WNW 22.5 km/h 25.7 km/h 95 % 0.0 mm 26 W/m2
09:40 6.3 °C 5.6 °C 1000.2 hPa WNW 6.4 km/h 25.7 km/h 95 % 0.0 mm 28 W/m2
09:45 6.4 °C 5.7 °C 1000.6 hPa WNW 19.3 km/h 25.7 km/h 95 % 0.0 mm 28 W/m2
09:50 6.6 °C 5.9 °C 1000.6 hPa WNW 6.4 km/h 33.8 km/h 95 % 0.0 mm 30 W/m2
09:55 6.7 °C 6.0 °C 1000.9 hPa WNW 16.1 km/h 33.8 km/h 95 % 0.0 mm 32 W/m2
10:00 6.8 °C 6.1 °C 1000.9 hPa NW 17.7 km/h 27.4 km/h 95 % 0.0 mm 33 W/m2
10:05 7.0 °C 6.3 °C 1001.2 hPa WNW 19.3 km/h 27.4 km/h 95 % 0.0 mm 35 W/m2
10:10 7.2 °C 6.4 °C 1001.2 hPa West 6.4 km/h 29.0 km/h 95 % 0.0 mm 132 W/m2
10:15 7.3 °C 6.6 °C 1001.2 hPa WSW 11.3 km/h 29.0 km/h 95 % 0.0 mm 211 W/m2
10:20 7.8 °C 6.8 °C 1001.6 hPa WNW 17.7 km/h 29.0 km/h 93 % 0.0 mm 223 W/m2
10:25 8.1 °C 6.7 °C 1001.6 hPa WNW 14.5 km/h 29.0 km/h 91 % 0.0 mm 237 W/m2
10:30 8.3 °C 6.7 °C 1001.9 hPa WNW 8.0 km/h 27.4 km/h 90 % 0.0 mm 251 W/m2
10:35 8.4 °C 6.7 °C 1001.9 hPa West 11.3 km/h 27.4 km/h 89 % 0.0 mm 258 W/m2
10:40 8.6 °C 7.0 °C 1002.3 hPa WNW 12.9 km/h 32.2 km/h 90 % 0.0 mm 269 W/m2
10:45 8.7 °C 6.8 °C 1002.3 hPa WNW 25.7 km/h 32.2 km/h 88 % 0.0 mm 278 W/m2
10:50 8.9 °C 6.8 °C 1002.3 hPa WNW 20.9 km/h 29.0 km/h 87 % 0.0 mm 290 W/m2
10:55 9.0 °C 7.0 °C 1002.6 hPa NW 9.7 km/h 30.6 km/h 87 % 0.0 mm 302 W/m2
11:00 9.2 °C 6.9 °C 1002.3 hPa NW 11.3 km/h 30.6 km/h 86 % 0.0 mm 313 W/m2
11:05 9.3 °C 6.9 °C 1002.6 hPa NNW 12.9 km/h 25.7 km/h 85 % 0.0 mm 322 W/m2
11:10 9.4 °C 6.9 °C 1002.6 hPa WNW 20.9 km/h 27.4 km/h 84 % 0.0 mm 327 W/m2
11:15 9.7 °C 6.9 °C 1002.9 hPa West 24.1 km/h 27.4 km/h 83 % 0.0 mm 338 W/m2
11:20 9.7 °C 6.6 °C 1002.9 hPa WNW 17.7 km/h 25.7 km/h 81 % 0.0 mm 343 W/m2
11:25 9.8 °C 6.8 °C 1002.9 hPa NW 12.9 km/h 25.7 km/h 82 % 0.0 mm 353 W/m2
11:30 9.9 °C 6.6 °C 1002.9 hPa NW 24.1 km/h 27.4 km/h 80 % 0.0 mm 362 W/m2
11:35 9.9 °C 6.5 °C 1003.3 hPa WNW 11.3 km/h 27.4 km/h 79 % 0.0 mm 367 W/m2
11:40 10.1 °C 6.6 °C 1003.3 hPa WNW 8.0 km/h 24.1 km/h 79 % 0.0 mm 380 W/m2
11:45 10.2 °C 6.5 °C 1003.6 hPa NW 8.0 km/h 25.7 km/h 78 % 0.0 mm 387 W/m2
11:50 10.4 °C 6.7 °C 1003.6 hPa WNW 11.3 km/h 25.7 km/h 78 % 0.0 mm 392 W/m2
11:55 10.5 °C 6.6 °C 1003.6 hPa NW 14.5 km/h 19.3 km/h 77 % 0.0 mm 392 W/m2
12:00 10.7 °C 6.4 °C 1003.6 hPa West 9.7 km/h 19.3 km/h 75 % 0.0 mm 399 W/m2
12:05 10.6 °C 6.0 °C 1003.6 hPa West 6.4 km/h 19.3 km/h 73 % 0.0 mm 404 W/m2
12:10 10.7 °C 6.7 °C 1003.6 hPa NNW 9.7 km/h 19.3 km/h 76 % 0.0 mm 410 W/m2
12:15 10.8 °C 6.1 °C 1003.6 hPa West 8.0 km/h 19.3 km/h 73 % 0.0 mm 415 W/m2
12:20 10.8 °C 5.9 °C 1003.6 hPa NW 8.0 km/h 20.9 km/h 72 % 0.0 mm 422 W/m2
12:25 10.8 °C 5.9 °C 1003.6 hPa WNW 8.0 km/h 20.9 km/h 72 % 0.0 mm 424 W/m2
12:30 11.0 °C 6.1 °C 1003.6 hPa WNW 12.9 km/h 19.3 km/h 72 % 0.0 mm 429 W/m2
12:35 11.0 °C 5.9 °C 1003.6 hPa NW 9.7 km/h 19.3 km/h 71 % 0.0 mm 436 W/m2
12:40 11.1 °C 6.2 °C 1003.6 hPa WNW 9.7 km/h 20.9 km/h 72 % 0.0 mm 396 W/m2
12:45 11.1 °C 6.6 °C 1003.6 hPa WNW 11.3 km/h 20.9 km/h 74 % 0.0 mm 302 W/m2
12:50 10.7 °C 6.0 °C 1003.6 hPa WNW 6.4 km/h 17.7 km/h 73 % 0.0 mm 276 W/m2
12:55 10.9 °C 7.0 °C 1003.3 hPa NNW 4.8 km/h 17.7 km/h 77 % 0.0 mm 336 W/m2
13:00 11.1 °C 6.8 °C 1003.3 hPa WSW 4.8 km/h 9.7 km/h 75 % 0.0 mm 341 W/m2
13:05 11.1 °C 7.0 °C 1003.3 hPa WSW 4.8 km/h 12.9 km/h 76 % 0.0 mm 362 W/m2
13:10 10.9 °C 6.9 °C 1003.6 hPa West 8.0 km/h 14.5 km/h 76 % 0.0 mm 315 W/m2
13:15 10.8 °C 6.5 °C 1003.6 hPa WSW 12.9 km/h 14.5 km/h 75 % 0.0 mm 508 W/m2
13:20 10.8 °C 6.6 °C 1003.6 hPa West 11.3 km/h 14.5 km/h 75 % 0.0 mm 436 W/m2
13:25 10.7 °C 6.3 °C 1003.6 hPa West 8.0 km/h 14.5 km/h 74 % 0.0 mm 209 W/m2
13:30 10.4 °C 6.6 °C 1003.6 hPa SW 6.4 km/h 12.9 km/h 77 % 0.0 mm 223 W/m2
13:35 10.2 °C 6.3 °C 1003.6 hPa West 9.7 km/h 11.3 km/h 77 % 0.0 mm 220 W/m2
13:40 10.1 °C 6.4 °C 1003.6 hPa WSW 9.7 km/h 11.3 km/h 78 % 0.0 mm 220 W/m2
13:45 10.0 °C 6.3 °C 1003.6 hPa SW 8.0 km/h 12.9 km/h 78 % 0.0 mm 236 W/m2
13:50 10.0 °C 6.7 °C 1003.6 hPa WSW 8.0 km/h 12.9 km/h 80 % 0.0 mm 213 W/m2
13:55 10.1 °C 7.0 °C 1003.6 hPa SW 3.2 km/h 9.7 km/h 81 % 0.0 mm 213 W/m2
14:00 10.0 °C 6.5 °C 1003.6 hPa SW 6.4 km/h 9.7 km/h 79 % 0.0 mm 216 W/m2
14:05 10.0 °C 6.7 °C 1003.6 hPa SSW 1.6 km/h 12.9 km/h 80 % 0.0 mm 211 W/m2
14:10 10.1 °C 6.8 °C 1003.6 hPa SW 4.8 km/h 12.9 km/h 80 % 0.0 mm 232 W/m2
14:15 10.3 °C 7.2 °C 1003.6 hPa SSW 6.4 km/h 9.7 km/h 81 % 0.0 mm 345 W/m2
14:20 10.6 °C 7.1 °C 1003.6 hPa SSW 4.8 km/h 11.3 km/h 79 % 0.0 mm 325 W/m2
14:25 10.6 °C 6.7 °C 1003.6 hPa SSW 3.2 km/h 16.1 km/h 77 % 0.0 mm 244 W/m2
14:30 10.5 °C 7.0 °C 1003.6 hPa WSW 3.2 km/h 20.9 km/h 79 % 0.0 mm 241 W/m2
14:35 10.6 °C 7.2 °C 1003.3 hPa South 3.2 km/h 20.9 km/h 80 % 0.0 mm 281 W/m2
14:40 10.7 °C 7.2 °C 1003.3 hPa South 6.4 km/h 16.1 km/h 79 % 0.0 mm 255 W/m2
14:45 10.7 °C 7.2 °C 1003.3 hPa SW 9.7 km/h 14.5 km/h 79 % 0.0 mm 230 W/m2
14:50 10.7 °C 6.9 °C 1003.3 hPa SW 3.2 km/h 12.9 km/h 77 % 0.0 mm 255 W/m2
14:55 10.7 °C 6.4 °C 1003.3 hPa WSW 14.5 km/h 17.7 km/h 75 % 0.0 mm 179 W/m2
15:00 10.6 °C 6.6 °C 1003.3 hPa South 1.6 km/h 17.7 km/h 76 % 0.0 mm 239 W/m2
15:05 10.7 °C 6.7 °C 1003.3 hPa SSW 12.9 km/h 14.5 km/h 76 % 0.0 mm 188 W/m2
15:10 10.7 °C 6.2 °C 1002.9 hPa SSW 11.3 km/h 16.1 km/h 74 % 0.0 mm 192 W/m2
15:15 10.9 °C 6.4 °C 1002.9 hPa SSW 9.7 km/h 16.1 km/h 74 % 0.0 mm 218 W/m2
15:20 10.8 °C 6.2 °C 1002.6 hPa South 8.0 km/h 17.7 km/h 73 % 0.0 mm 316 W/m2
15:25 10.9 °C 6.3 °C 1002.6 hPa SSW 14.5 km/h 17.7 km/h 73 % 0.0 mm 329 W/m2
15:30 11.1 °C 6.2 °C 1002.6 hPa South 9.7 km/h 17.7 km/h 72 % 0.0 mm 204 W/m2
15:35 11.1 °C 6.4 °C 1002.6 hPa SSW 12.9 km/h 20.9 km/h 73 % 0.0 mm 204 W/m2
15:40 11.1 °C 6.4 °C 1002.6 hPa South 16.1 km/h 22.5 km/h 73 % 0.0 mm 179 W/m2
15:45 11.0 °C 6.5 °C 1002.6 hPa SSW 4.8 km/h 22.5 km/h 74 % 0.0 mm 213 W/m2
15:50 11.1 °C 6.6 °C 1002.6 hPa SSW 4.8 km/h 19.3 km/h 74 % 0.0 mm 130 W/m2
15:55 11.1 °C 6.8 °C 1002.3 hPa SSE 16.1 km/h 20.9 km/h 75 % 0.0 mm 100 W/m2
16:00 10.8 °C 6.6 °C 1002.3 hPa SSW 8.0 km/h 20.9 km/h 75 % 0.0 mm 51 W/m2
16:05 10.7 °C 6.9 °C 1002.3 hPa South 6.4 km/h 19.3 km/h 77 % 0.0 mm 93 W/m2
16:10 10.7 °C 6.8 °C 1002.3 hPa South 12.9 km/h 19.3 km/h 77 % 0.0 mm 69 W/m2
16:15 10.6 °C 6.7 °C 1002.3 hPa SSW 4.8 km/h 20.9 km/h 77 % 0.0 mm 32 W/m2
16:20 10.5 °C 6.6 °C 1001.9 hPa SSW 12.9 km/h 22.5 km/h 77 % 0.0 mm 95 W/m2
16:25 10.6 °C 6.9 °C 1001.9 hPa South 12.9 km/h 22.5 km/h 78 % 0.0 mm 90 W/m2
16:30 10.4 °C 7.1 °C 1001.9 hPa South 8.0 km/h 20.9 km/h 80 % 0.0 mm 44 W/m2
16:35 10.2 °C 7.1 °C 1001.9 hPa South 12.9 km/h 22.5 km/h 81 % 0.0 mm 42 W/m2
16:40 10.2 °C 7.1 °C 1001.9 hPa South 11.3 km/h 22.5 km/h 81 % 0.0 mm 58 W/m2
16:45 10.2 °C 7.2 °C 1001.9 hPa SSW 12.9 km/h 27.4 km/h 82 % 0.0 mm 53 W/m2
16:50 10.2 °C 7.3 °C 1001.9 hPa South 14.5 km/h 27.4 km/h 82 % 0.0 mm 32 W/m2
16:55 10.2 °C 7.3 °C 1001.6 hPa South 12.9 km/h 22.5 km/h 82 % 0.0 mm 28 W/m2
17:00 10.2 °C 7.5 °C 1001.6 hPa South 14.5 km/h 22.5 km/h 83 % 0.0 mm 14 W/m2
17:05 10.1 °C 7.7 °C 1001.9 hPa WSW 11.3 km/h 25.7 km/h 85 % 0.0 mm 5 W/m2
17:10 9.7 °C 7.6 °C 1001.9 hPa SSW 17.7 km/h 30.6 km/h 87 % 0.5 mm 14 W/m2
17:15 9.1 °C 7.4 °C 1001.9 hPa South 8.0 km/h 30.6 km/h 89 % 0.8 mm 21 W/m2
17:20 8.7 °C 7.3 °C 1001.9 hPa South 19.3 km/h 25.7 km/h 91 % 0.8 mm 26 W/m2
17:25 8.4 °C 7.2 °C 1001.6 hPa SSE 9.7 km/h 25.7 km/h 92 % 0.8 mm 28 W/m2
17:30 8.3 °C 7.1 °C 1001.6 hPa South 22.5 km/h 24.1 km/h 92 % 0.8 mm 26 W/m2
17:35 8.3 °C 7.2 °C 1001.6 hPa South 3.2 km/h 22.5 km/h 93 % 0.8 mm 21 W/m2
17:40 8.2 °C 7.2 °C 1001.6 hPa SSE 6.4 km/h 22.5 km/h 93 % 0.8 mm 16 W/m2
17:45 8.2 °C 7.2 °C 1001.6 hPa South 8.0 km/h 17.7 km/h 93 % 0.8 mm 19 W/m2
17:50 8.2 °C 7.3 °C 1001.6 hPa SSW 4.8 km/h 16.1 km/h 94 % 0.8 mm 14 W/m2
17:55 8.2 °C 7.3 °C 1001.6 hPa SW 16.1 km/h 17.7 km/h 94 % 0.8 mm 12 W/m2
18:00 8.2 °C 7.3 °C 1001.6 hPa SSW 11.3 km/h 17.7 km/h 94 % 0.8 mm 9 W/m2
18:05 8.1 °C 7.2 °C 1001.6 hPa South 4.8 km/h 16.1 km/h 94 % 0.5 mm 7 W/m2
18:10 8.1 °C 7.1 °C 1001.6 hPa South 6.4 km/h 14.5 km/h 94 % 0.5 mm 5 W/m2
18:15 8.1 °C 7.3 °C 1001.6 hPa South 12.9 km/h 14.5 km/h 95 % 0.0 mm 0 W/m2
18:20 8.0 °C 7.2 °C 1001.6 hPa South 8.0 km/h 14.5 km/h 95 % 0.0 mm 0 W/m2
18:25 7.9 °C 7.1 °C 1001.2 hPa South 4.8 km/h 12.9 km/h 95 % 0.0 mm 0 W/m2
18:30 7.8 °C 7.1 °C 1001.2 hPa South 3.2 km/h 9.7 km/h 95 % 0.0 mm 0 W/m2
18:35 7.8 °C 7.1 °C 1001.2 hPa South 1.6 km/h 9.7 km/h 95 % 0.0 mm 0 W/m2
18:40 7.8 °C 7.1 °C 1001.2 hPa South 6.4 km/h 6.4 km/h 95 % 0.0 mm 0 W/m2
18:45 7.8 °C 7.1 °C 1001.2 hPa SSE 6.4 km/h 11.3 km/h 95 % 0.0 mm 0 W/m2
18:50 7.9 °C 7.2 °C 1000.9 hPa South 8.0 km/h 11.3 km/h 95 % 0.0 mm 0 W/m2
18:55 8.1 °C 7.5 °C 1001.2 hPa South 8.0 km/h 12.9 km/h 96 % 0.0 mm 0 W/m2
19:00 8.2 °C 7.5 °C 1001.2 hPa SSW 11.3 km/h 12.9 km/h 95 % 0.0 mm 0 W/m2
19:05 8.3 °C 7.6 °C 1001.2 hPa SSW 4.8 km/h 11.3 km/h 95 % 0.0 mm 0 W/m2
19:10 8.3 °C 7.6 °C 1000.9 hPa SSW 4.8 km/h 11.3 km/h 95 % 0.0 mm 0 W/m2
19:15 8.3 °C 7.6 °C 1000.9 hPa South 3.2 km/h 9.7 km/h 95 % 0.0 mm 0 W/m2
19:20 8.4 °C 7.6 °C 1000.9 hPa South 4.8 km/h 9.7 km/h 95 % 0.0 mm 0 W/m2
19:25 8.4 °C 7.6 °C 1000.9 hPa SW 6.4 km/h 9.7 km/h 95 % 0.0 mm 0 W/m2
19:30 8.3 °C 7.6 °C 1000.9 hPa SSW 1.6 km/h 8.0 km/h 95 % 0.0 mm 0 W/m2
19:35 8.3 °C 7.6 °C 1000.9 hPa SSW 6.4 km/h 11.3 km/h 95 % 0.0 mm 0 W/m2
19:40 8.4 °C 7.6 °C 1000.6 hPa SSW 8.0 km/h 11.3 km/h 95 % 0.0 mm 0 W/m2
19:45 8.4 °C 7.6 °C 1000.9 hPa SW 3.2 km/h 11.3 km/h 95 % 0.0 mm 0 W/m2
19:50 8.4 °C 7.6 °C 1000.6 hPa SSW 3.2 km/h 11.3 km/h 95 % 0.0 mm 0 W/m2
19:55 8.4 °C 7.7 °C 1000.6 hPa South 4.8 km/h 9.7 km/h 95 % 0.0 mm 0 W/m2
20:00 8.4 °C 7.7 °C 1000.9 hPa SSW 8.0 km/h 9.7 km/h 95 % 0.0 mm 0 W/m2
20:05 8.4 °C 7.7 °C 1000.6 hPa SSW 6.4 km/h 11.3 km/h 95 % 0.0 mm 0 W/m2
20:10 8.4 °C 7.8 °C 1000.9 hPa SSW 1.6 km/h 11.3 km/h 96 % 0.0 mm 0 W/m2
20:15 8.4 °C 7.8 °C 1000.6 hPa SW 6.4 km/h 9.7 km/h 96 % 0.0 mm 0 W/m2
20:20 8.5 °C 7.9 °C 1000.6 hPa SSW 3.2 km/h 9.7 km/h 96 % 0.0 mm 0 W/m2
20:25 8.5 °C 7.9 °C 1000.9 hPa SW 1.6 km/h 11.3 km/h 96 % 0.0 mm 0 W/m2
20:30 8.6 °C 8.0 °C 1000.6 hPa SW 4.8 km/h 11.3 km/h 96 % 0.0 mm 0 W/m2
20:35 8.6 °C 7.8 °C 1000.6 hPa SW 1.6 km/h 11.3 km/h 95 % 0.0 mm 0 W/m2
20:40 8.6 °C 7.8 °C 1000.6 hPa SSW 4.8 km/h 11.3 km/h 95 % 0.0 mm 0 W/m2
20:45 8.6 °C 7.8 °C 1000.6 hPa SSW 1.6 km/h 8.0 km/h 95 % 0.0 mm 0 W/m2
20:50 8.6 °C 7.8 °C 1000.6 hPa SSW 3.2 km/h 9.7 km/h 95 % 0.0 mm 0 W/m2
20:55 8.4 °C 7.7 °C 1000.6 hPa South 6.4 km/h 9.7 km/h 95 % 0.0 mm 0 W/m2
21:00 8.4 °C 7.6 °C 1000.2 hPa South 1.6 km/h 8.0 km/h 95 % 0.0 mm 0 W/m2
21:05 8.3 °C 7.6 °C 999.9 hPa South 4.8 km/h 6.4 km/h 95 % 0.0 mm 0 W/m2
21:10 8.3 °C 7.6 °C 999.9 hPa Calm   8.0 km/h 95 % 0.0 mm 0 W/m2
21:15 8.2 °C 7.5 °C 999.9 hPa South 1.6 km/h 8.0 km/h 95 % 0.0 mm 0 W/m2
21:20 8.2 °C 7.4 °C 999.9 hPa South 3.2 km/h 6.4 km/h 95 % 0.0 mm 0 W/m2
21:25 8.1 °C 7.4 °C 999.9 hPa South 3.2 km/h 6.4 km/h 95 % 0.0 mm 0 W/m2
21:30 8.1 °C 7.5 °C 999.9 hPa South 4.8 km/h 6.4 km/h 96 % 0.0 mm 0 W/m2
21:35 8.1 °C 7.5 °C 999.9 hPa South 4.8 km/h 6.4 km/h 96 % 0.0 mm 0 W/m2
21:40 8.1 °C 7.5 °C 999.9 hPa South 8.0 km/h 8.0 km/h 96 % 0.0 mm 0 W/m2
21:45 8.1 °C 7.5 °C 999.9 hPa South 8.0 km/h 9.7 km/h 96 % 0.0 mm 0 W/m2
21:50 8.2 °C 7.6 °C 999.9 hPa South 8.0 km/h 11.3 km/h 96 % 0.0 mm 0 W/m2
21:55 8.2 °C 7.6 °C 999.9 hPa South 4.8 km/h 11.3 km/h 96 % 0.0 mm 0 W/m2
22:00 8.3 °C 7.5 °C 999.5 hPa SSE 4.8 km/h 11.3 km/h 95 % 0.0 mm 0 W/m2
22:05 8.1 °C 7.4 °C 999.5 hPa SSE 6.4 km/h 8.0 km/h 95 % 0.0 mm 0 W/m2
22:10 8.0 °C 7.2 °C 999.5 hPa SSE 4.8 km/h 6.4 km/h 95 % 0.0 mm 0 W/m2
22:15 8.1 °C 7.5 °C 999.5 hPa South 6.4 km/h 9.7 km/h 96 % 0.0 mm 0 W/m2
22:20 8.1 °C 7.5 °C 999.5 hPa South 4.8 km/h 9.7 km/h 96 % 0.0 mm 0 W/m2
22:25 8.2 °C 7.6 °C 999.5 hPa SSE 8.0 km/h 9.7 km/h 96 % 0.0 mm 0 W/m2
22:30 8.3 °C 7.6 °C 999.5 hPa South 6.4 km/h 12.9 km/h 95 % 0.0 mm 0 W/m2
22:35 8.4 °C 7.7 °C 999.2 hPa SSE 11.3 km/h 12.9 km/h 95 % 0.0 mm 0 W/m2
22:40 8.5 °C 7.7 °C 999.2 hPa SSE 6.4 km/h 14.5 km/h 95 % 0.0 mm 0 W/m2
22:45 8.5 °C 7.7 °C 998.9 hPa SE 6.4 km/h 14.5 km/h 95 % 0.0 mm 0 W/m2
22:50 8.4 °C 7.7 °C 998.9 hPa SSE 4.8 km/h 11.3 km/h 95 % 0.0 mm 0 W/m2
22:55 8.4 °C 7.7 °C 998.9 hPa SSE 3.2 km/h 11.3 km/h 95 % 0.0 mm 0 W/m2
23:00 8.5 °C 7.7 °C 998.9 hPa SSE 4.8 km/h 11.3 km/h 95 % 0.0 mm 0 W/m2
23:05 8.5 °C 7.7 °C 998.9 hPa SSE 4.8 km/h 11.3 km/h 95 % 0.0 mm 0 W/m2
23:10 8.5 °C 7.9 °C 998.9 hPa SSE 1.6 km/h 9.7 km/h 96 % 0.0 mm 0 W/m2
23:15 8.6 °C 8.0 °C 998.5 hPa SSE 3.2 km/h 9.7 km/h 96 % 0.3 mm 0 W/m2
23:20 8.6 °C 8.0 °C 998.9 hPa Calm   6.4 km/h 96 % 0.5 mm 0 W/m2
23:25 8.6 °C 8.0 °C 998.9 hPa Calm   4.8 km/h 96 % 0.5 mm 0 W/m2
23:35 8.7 °C 8.1 °C 998.5 hPa WSW 3.2 km/h 9.7 km/h 96 % 0.5 mm 0 W/m2
23:40 8.7 °C 8.1 °C 998.5 hPa South 4.8 km/h 9.7 km/h 96 % 0.5 mm 0 W/m2
23:45 8.7 °C 8.1 °C 998.2 hPa SSW 6.4 km/h 11.3 km/h 96 % 0.5 mm 0 W/m2
23:50 8.7 °C 8.1 °C 998.2 hPa SW 4.8 km/h 12.9 km/h 96 % 0.5 mm 0 W/m2
23:55 8.7 °C 8.1 °C 998.2 hPa SSW 4.8 km/h 12.9 km/h 96 % 1.0 mm 0 W/m2
Avec l'autorisation de Weather Underground - 1.75 mb